Time;durP1;ratioP1;P1;durP2;ratioP2;P2;SDS_P1;SDS_P2;PMS_P1;PMS_P2;Temp;Humidity;BMP_temperature;BMP_pressure;BME280_temperature;BME280_humidity;BME280_pressure;Samples;Min_cycle;Max_cycle;Signal;HPM_P1;HPM_P2
2023/02/12 00:02:50;;;;;;;;;;;;;;;;;;;;;
2023/02/12 00:06:04;;;;;;;;;54.75;43.00;;;;;1.83;64.75;102310.84;146610;670;47012;-72
2023/02/12 00:09:14;;;;;;;;;;;;;;;;;;;;;
2023/02/12 00:12:31;;;;;;;;;59.50;47.00;;;;;1.75;64.99;102315.88;146611;569;46012;-73
2023/02/12 00:15:36;;;;;;;;;57.25;44.25;;;;;1.64;65.24;102312.09;146614;702;46010;-75
2023/02/12 00:18:40;;;;;;;;;42.00;36.00;;;;;1.49;65.37;102311.28;146609;612;46016;-74
2023/02/12 00:21:36;;;;;;;;;49.50;38.00;;;;;1.34;65.28;102305.38;146614;613;46021;-76
2023/02/12 00:24:35;;;;;;;;;39.25;35.00;;;;;1.22;65.60;102306.53;146611;621;46016;-74
2023/02/12 00:27:35;;;;;;;;;35.00;27.50;;;;;1.09;65.35;102306.78;146613;603;46020;-75
2023/02/12 00:30:33;;;;;;;;;39.00;33.50;;;;;0.99;65.92;102311.56;146610;600;47012;-75
2023/02/12 00:33:36;;;;;;;;;35.50;33.00;;;;;0.94;66.78;102306.69;146614;626;46020;-75
2023/02/12 00:36:51;;;;;;;;;44.00;33.75;;;;;0.86;66.60;102296.47;146606;639;47012;-76
2023/02/12 00:39:47;;;;;;;;;40.25;33.00;;;;;0.86;67.36;102290.47;146614;596;46020;-73
2023/02/12 00:42:50;;;;;;;;;65.00;51.00;;;;;0.85;67.46;102298.88;146610;564;46017;-74
2023/02/12 00:45:48;;;;;;;;;23.75;21.00;;;;;0.83;67.02;102300.31;146614;773;46020;-73
2023/02/12 00:49:20;;;;;;;;;29.50;22.00;;;;;-0.25;66.42;102098.22;146612;637;46016;-73
2023/02/12 00:52:16;;;;;;;;;18.25;16.75;;;;;0.75;66.59;102284.16;146613;647;46021;-74
2023/02/12 00:55:17;;;;;;;;;20.25;18.00;;;;;0.75;66.51;102276.47;146612;632;46016;-75
2023/02/12 00:58:19;;;;;;;;;;;;;;;;;;;;;
2023/02/12 01:01:25;;;;;;;;;27.25;21.25;;;;;0.81;66.72;102277.19;146610;728;46016;-76
2023/02/12 01:04:37;;;;;;;;;20.00;17.00;;;;;0.87;66.94;102270.22;146613;629;46020;-77
2023/02/12 01:08:14;;;;;;;;;20.75;15.75;;;;;-0.44;65.96;102030.56;146610;646;46915;-75
2023/02/12 01:11:31;;;;;;;;;15.75;12.00;;;;;0.87;66.16;102262.56;146614;645;46012;-75
2023/02/12 01:14:37;;;;;;;;;17.75;13.75;;;;;0.80;66.33;102252.38;146611;606;46012;-74
2023/02/12 01:17:29;;;;;;;;;10.75;9.75;;;;;0.78;65.95;102251.31;146612;620;46020;-74
2023/02/12 01:20:25;;;;;;;;;16.25;13.50;;;;;0.78;66.03;102246.19;146614;597;46017;-73
2023/02/12 01:23:19;;;;;;;;;16.50;14.75;;;;;0.80;65.83;102244.69;146618;769;46020;-73
2023/02/12 01:26:13;;;;;;;;;14.00;12.00;;;;;0.78;66.09;102241.09;146611;609;46016;-73
2023/02/12 01:29:08;;;;;;;;;13.25;10.25;;;;;0.77;65.87;102243.44;146616;613;46021;-76
2023/02/12 01:32:01;;;;;;;;;16.75;12.00;;;;;0.77;66.24;102239.25;146613;634;46016;-79
2023/02/12 01:34:55;;;;;;;;;19.50;17.75;;;;;0.78;65.76;102240.16;146612;615;46917;-80
2023/02/12 01:37:47;;;;;;;;;23.00;17.75;;;;;0.76;65.44;102241.66;146615;586;46029;-79
2023/02/12 01:40:40;;;;;;;;;21.25;19.50;;;;;0.70;65.36;102229.06;146613;587;46020;-79
2023/02/12 01:43:49;;;;;;;;;22.75;15.25;;;;;0.71;65.60;102229.97;146612;565;46017;-82
2023/02/12 01:47:37;;;;;;;;;;;;;;;;;;;;;
2023/02/12 01:50:53;;;;;;;;;13.00;12.00;;;;;0.59;65.81;102212.56;146611;697;46016;-79
2023/02/12 01:54:04;;;;;;;;;13.75;11.00;;;;;0.53;66.04;102206.75;146617;577;46010;-80
2023/02/12 01:57:31;;;;;;;;;;;;;;;;;;;;;
2023/02/12 02:00:46;;;;;;;;;17.25;15.50;;;;;-0.58;66.34;102011.16;146614;609;46012;-78
2023/02/12 02:03:45;;;;;;;;;19.75;17.25;;;;;0.38;66.46;102204.97;146611;602;46017;-78
2023/02/12 02:07:05;;;;;;;;;23.75;18.00;;;;;0.27;66.55;102196.06;146618;574;46020;-82
2023/02/12 02:10:05;;;;;;;;;27.75;21.25;;;;;0.18;67.47;102195.00;146613;671;46016;-79
2023/02/12 02:16:32;;;;;;;;;21.00;17.00;;;;;0.02;68.05;102189.78;146612;587;46012;-76
2023/02/12 02:20:16;;;;;;;;;28.00;22.50;;;;;-1.24;67.97;101972.94;146618;564;45021;-75
2023/02/12 02:23:47;;;;;;;;;20.50;17.25;;;;;-0.11;68.41;102179.78;146610;565;46016;-76
2023/02/12 02:27:44;;;;;;;;;22.50;18.25;;;;;-1.34;68.27;101964.91;146615;566;46010;-76
2023/02/12 02:31:22;;;;;;;;;25.75;20.00;;;;;-0.19;68.39;102170.31;146611;613;46016;-76
2023/02/12 02:34:54;;;;;;;;;21.75;20.00;;;;;-1.18;68.99;101994.91;146613;609;46021;-78
2023/02/12 02:38:13;;;;;;;;;20.75;17.00;;;;;-0.14;68.68;102169.22;146612;569;46016;-77
2023/02/12 02:41:29;;;;;;;;;;;;;;;;;;;;;
2023/02/12 02:45:04;;;;;;;;;22.50;18.25;;;;;-0.10;68.66;102165.37;146612;584;46016;-76
2023/02/12 02:48:33;;;;;;;;;24.00;22.00;;;;;-1.15;68.55;101989.28;146611;602;46010;-77
2023/02/12 02:52:02;;;;;;;;;24.75;20.50;;;;;-0.08;68.76;102175.03;146612;569;46012;-71
2023/02/12 02:55:19;;;;;;;;;23.75;19.50;;;;;-0.09;68.57;102169.78;146613;576;46012;-70
2023/02/12 02:58:35;;;;;;;;;22.25;20.75;;;;;-1.22;68.79;101984.16;146610;620;46012;-71
2023/02/12 03:01:42;;;;;;;;;20.25;20.00;;;;;-0.26;69.28;102172.91;146614;601;46010;-71
2023/02/12 03:04:46;;;;;;;;;25.25;20.00;;;;;-0.35;69.14;102162.53;146610;578;46016;-71
2023/02/12 03:08:10;;;;;;;;;26.00;22.00;;;;;-1.50;68.91;101968.19;146612;565;46020;-71
2023/02/12 03:11:28;;;;;;;;;21.25;17.00;;;;;-0.40;69.31;102171.28;146611;564;45019;-71
2023/02/12 03:15:05;;;;;;;;;;;;;;;;;;;;;
2023/02/12 03:18:36;;;;;;;;;19.25;17.00;;;;;-0.45;69.83;102174.03;146609;629;46920;-78
2023/02/12 03:22:29;;;;;;;;;;;;;;;;;;;;;
2023/02/12 03:26:22;;;;;;;;;19.75;16.00;;;;;-1.42;70.40;101992.91;146611;570;46016;-78
2023/02/12 03:29:21;;;;;;;;;16.75;13.25;;;;;-0.45;69.90;102163.81;146613;598;46019;-79
2023/02/12 03:33:12;;;;;;;;;21.50;19.00;;;;;-2.27;69.31;101835.22;146611;585;46012;-77
2023/02/12 03:37:04;;;;;;;;;20.75;18.00;;;;;-1.47;69.13;101962.56;146613;612;46020;-78
2023/02/12 03:40:40;;;;;;;;;29.75;19.75;;;;;-0.29;69.56;102157.25;146611;572;46017;-78
2023/02/12 03:44:50;;;;;;;;;17.75;14.25;;;;;-1.42;69.51;101958.94;146613;667;46010;-77
2023/02/12 03:48:24;;;;;;;;;;;;;;;;;;;;;
2023/02/12 03:51:31;;;;;;;;;17.75;15.00;;;;;-0.34;69.08;102151.63;146616;573;46020;-78
2023/02/12 03:54:40;;;;;;;;;26.00;20.00;;;;;-0.37;68.88;102150.34;146613;627;46013;-78
2023/02/12 03:58:02;;;;;;;;;20.50;16.75;;;;;-0.41;69.22;102148.16;146616;575;46020;-77
2023/02/12 04:01:18;;;;;;;;;24.25;20.50;;;;;-0.44;69.68;102148.69;146617;614;46917;-75
2023/02/12 04:04:34;;;;;;;;;18.75;13.50;;;;;-1.95;68.64;101873.00;146621;612;46023;-71
2023/02/12 04:07:35;;;;;;;;;19.00;15.00;;;;;-0.46;69.73;102140.00;146617;713;46018;-71
2023/02/12 04:11:00;;;;;;;;;21.00;20.25;;;;;-0.49;69.98;102150.72;146621;597;46012;-71
2023/02/12 04:14:25;;;;;;;;;20.50;19.25;;;;;-0.49;69.83;102148.19;146617;580;46016;-72
2023/02/12 04:18:19;;;;;;;;;16.75;15.00;;;;;-1.24;69.63;102008.56;146620;604;46023;-73
2023/02/12 04:21:59;;;;;;;;;17.50;14.50;;;;;-1.54;69.39;101950.75;146614;582;46016;-73
2023/02/12 04:25:36;;;;;;;;;20.25;15.00;;;;;-1.67;69.58;101939.84;146623;620;46011;-71
2023/02/12 04:29:27;;;;;;;;;17.75;15.75;;;;;-1.78;69.20;101930.94;146615;646;47012;-71
2023/02/12 04:33:02;;;;;;;;;28.25;22.00;;;;;-0.56;69.57;102152.34;146621;590;46021;-78
2023/02/12 04:36:18;;;;;;;;;28.25;20.25;;;;;-0.59;70.96;102146.88;146618;601;46012;-80
2023/02/12 04:39:32;;;;;;;;;24.00;19.25;;;;;-0.61;71.19;102156.00;146621;564;46020;-78
2023/02/12 04:43:06;;;;;;;;;24.75;20.00;;;;;-1.84;70.24;101929.31;146619;564;46016;-78
2023/02/12 04:46:07;;;;;;;;;19.50;19.50;;;;;-0.63;71.32;102155.81;146619;603;45575;-78
2023/02/12 04:49:05;;;;;;;;;18.00;15.50;;;;;-0.63;71.69;102148.19;146617;569;46016;-77
2023/02/12 04:52:10;;;;;;;;;24.25;18.50;;;;;-0.61;71.57;102144.19;146620;602;46020;-77
2023/02/12 04:55:28;;;;;;;;;29.00;23.50;;;;;-2.50;70.97;101823.22;146616;622;47031;-71
2023/02/12 04:58:24;;;;;;;;;24.00;17.50;;;;;-0.63;71.58;102158.38;146614;612;46010;-78
2023/02/12 05:01:30;;;;;;;;;;;;;;;;;;;;;
2023/02/12 05:04:35;;;;;;;;;19.00;14.25;;;;;-0.65;72.38;102164.03;146617;600;46020;-78
2023/02/12 05:07:40;;;;;;;;;24.00;21.25;;;;;-0.68;71.80;102156.03;146610;586;46012;-77
2023/02/12 05:10:53;;;;;;;;;25.50;20.00;;;;;-0.70;72.45;102166.00;146614;593;45021;-80
2023/02/12 05:13:56;;;;;;;;;28.50;24.00;;;;;-0.69;73.04;102162.72;146611;609;46917;-77
2023/02/12 05:16:50;;;;;;;;;23.25;17.00;;;;;-0.68;72.02;102171.31;146614;622;46010;-79
2023/02/12 05:19:53;;;;;;;;;24.25;21.00;;;;;-0.65;72.00;102164.03;146610;581;46012;-78
2023/02/12 05:22:55;;;;;;;;;26.25;21.50;;;;;-0.59;73.19;102164.72;146614;577;46020;-74
2023/02/12 05:26:07;;;;;;;;;20.75;17.75;;;;;-0.60;72.65;102160.38;146610;604;46012;-74
2023/02/12 05:29:11;;;;;;;;;27.75;22.50;;;;;-0.62;73.25;102172.00;146612;564;46020;-73
2023/02/12 05:32:20;;;;;;;;;30.00;23.00;;;;;-2.32;72.47;101875.34;146610;634;46016;-73
2023/02/12 05:35:30;;;;;;;;;27.25;20.25;;;;;-0.62;73.42;102178.03;146615;620;45020;-73
2023/02/12 05:38:50;;;;;;;;;26.00;19.25;;;;;-1.75;73.30;101978.72;146609;623;46017;-73
2023/02/12 05:42:13;;;;;;;;;19.50;17.25;;;;;-0.58;73.50;102180.22;146617;602;45020;-74
2023/02/12 05:45:26;;;;;;;;;24.25;18.25;;;;;-0.54;72.60;102182.37;146606;602;48917;-74
2023/02/12 05:48:33;;;;;;;;;20.75;19.50;;;;;-0.46;72.98;102190.94;146614;584;46020;-73
2023/02/12 05:51:39;;;;;;;;;24.00;20.50;;;;;-0.40;72.96;102189.13;146612;597;46016;-74
2023/02/12 05:54:56;;;;;;;;;30.00;21.50;;;;;-0.33;72.50;102191.66;146613;582;46010;-80
2023/02/12 05:57:53;;;;;;;;;29.75;24.50;;;;;-0.22;72.83;102192.00;146612;627;46012;-81
2023/02/12 06:00:58;;;;;;;;;23.75;20.00;;;;;-0.13;72.45;102193.97;146615;597;45020;-81
2023/02/12 06:04:22;;;;;;;;;28.75;24.25;;;;;-1.11;73.89;101952.34;146611;589;46012;-85
2023/02/12 06:07:38;;;;;;;;;29.50;22.75;;;;;1.59;76.78;102205.88;146613;623;46010;-90
2023/02/12 06:10:33;;;;;;;;;22.50;19.25;;;;;2.86;70.94;102209.34;146611;586;46017;-88
2023/02/12 06:13:34;;;;;;;;;23.00;20.00;;;;;3.83;66.37;102203.97;146614;635;46020;-88
2023/02/12 06:16:43;;;;;;;;;51.50;41.75;;;;;3.89;65.02;102046.41;146611;584;46013;-79
2023/02/12 06:19:42;;;;;;;;;31.25;23.50;;;;;5.71;60.19;102203.53;146615;569;46010;-80
2023/02/12 06:23:09;;;;;;;;;57.50;47.00;;;;;6.53;57.33;102209.41;146611;570;46017;-81
2023/02/12 06:26:16;;;;;;;;;37.50;30.75;;;;;7.10;56.31;102210.25;146613;569;46020;-74
2023/02/12 06:29:19;;;;;;;;;34.75;28.00;;;;;6.92;55.02;102058.31;146610;576;46016;-76
2023/02/12 06:32:21;;;;;;;;;57.75;44.25;;;;;8.27;52.88;102204.06;146615;590;46021;-77
2023/02/12 06:35:29;;;;;;;;;63.50;48.25;;;;;8.79;54.03;102199.78;146613;563;46014;-78
2023/02/12 06:38:51;;;;;;;;;53.00;42.00;;;;;9.35;49.30;102200.84;146614;605;46011;-86
2023/02/12 06:42:05;;;;;;;;;63.00;49.50;;;;;8.21;49.51;101939.09;146607;607;48915;-85
2023/02/12 06:45:10;;;;;;;;;68.50;49.25;;;;;9.86;49.20;102205.72;146613;582;46010;-84
2023/02/12 06:48:22;;;;;;;;;76.50;62.25;;;;;9.91;46.94;102203.50;146609;573;46016;-85
2023/02/12 06:51:37;;;;;;;;;71.25;52.50;;;;;9.95;50.76;102211.62;146611;655;46020;-82
2023/02/12 06:54:42;;;;;;;;;60.25;46.50;;;;;9.84;48.71;102139.91;146611;659;46012;-85
2023/02/12 06:57:37;;;;;;;;;61.75;48.00;;;;;9.38;47.35;101990.50;146617;614;46020;-83
2023/02/12 07:00:32;;;;;;;;;66.00;49.50;;;;;11.00;47.05;102199.66;146619;569;46016;-83
2023/02/12 07:03:35;;;;;;;;;64.50;50.25;;;;;11.23;46.08;102198.69;146615;707;47010;-83
2023/02/12 07:06:40;;;;;;;;;65.50;50.50;;;;;10.41;45.38;102045.72;146619;715;46015;-87
2023/02/12 07:09:40;;;;;;;;;64.25;49.00;;;;;11.10;43.85;102201.22;146622;604;46020;-89
2023/02/12 07:12:39;;;;;;;;;62.25;49.25;;;;;10.63;43.67;102202.13;146616;611;46016;-88
2023/02/12 07:15:34;;;;;;;;;51.00;40.25;;;;;9.90;43.82;102204.25;146622;656;46021;-88
2023/02/12 07:18:35;;;;;;;;;48.25;39.50;;;;;9.08;44.97;102196.94;146617;724;46016;-71
2023/02/12 07:21:31;;;;;;;;;45.25;35.75;;;;;8.38;47.30;102207.59;146621;630;46010;-78
2023/02/12 07:24:28;;;;;;;;;49.75;36.75;;;;;7.91;49.02;102203.53;146618;566;46012;-73
2023/02/12 07:27:29;;;;;;;;;52.00;39.25;;;;;7.57;50.21;102203.19;146624;571;45020;-74
2023/02/12 07:30:42;;;;;;;;;50.75;40.00;;;;;7.26;51.22;102197.03;146617;634;46016;-73
2023/02/12 07:33:45;;;;;;;;;53.50;43.25;;;;;6.97;50.91;102189.31;146620;584;46010;-79
2023/02/12 07:36:41;;;;;;;;;58.50;46.50;;;;;6.72;51.61;102187.09;146607;570;48915;-79
2023/02/12 07:40:00;;;;;;;;;58.25;45.50;;;;;5.46;54.83;102002.22;146612;655;46020;-81
2023/02/12 07:43:14;;;;;;;;;56.00;43.00;;;;;6.38;54.46;102188.31;146610;581;46016;-82
2023/02/12 07:46:34;;;;;;;;;51.75;41.75;;;;;6.33;54.86;102190.47;146613;601;46012;-81
2023/02/12 07:49:51;;;;;;;;;53.00;41.25;;;;;6.57;52.70;102199.50;146611;629;46012;-81
2023/02/12 07:52:48;;;;;;;;;69.25;53.00;;;;;6.81;51.55;102200.81;146611;592;46012;-79
2023/02/12 07:56:08;;;;;;;;;64.25;47.75;;;;;6.92;52.93;102194.06;146608;705;46012;-86
2023/02/12 07:59:11;;;;;;;;;65.25;50.50;;;;;7.20;52.71;102188.78;146629;564;46010;-77
2023/02/12 08:02:19;;;;;;;;;66.50;50.75;;;;;7.56;54.84;102191.97;146631;586;45036;-77
2023/02/12 08:05:31;;;;;;;;;65.50;49.50;;;;;7.10;54.32;102016.81;146634;590;45032;-72
2023/02/12 08:08:29;;;;;;;;;53.25;42.25;;;;;8.49;51.10;102185.22;146632;574;46016;-71
2023/02/12 08:11:36;;;;;;;;;52.75;41.50;;;;;8.91;51.44;102186.91;146638;625;45020;-70
2023/02/12 08:14:36;;;;;;;;;63.25;50.50;;;;;9.23;49.23;102177.47;146636;617;44913;-78
2023/02/12 08:17:42;;;;;;;;;69.50;54.00;;;;;9.46;49.58;102180.97;146636;690;46010;-76
2023/02/12 08:20:58;;;;;;;;;;;;;;;;;;;;;
2023/02/12 08:24:04;;;;;;;;;70.50;54.00;;;;;9.49;46.82;102184.69;146635;724;45010;-75
2023/02/12 08:27:07;;;;;;;;;52.25;41.75;;;;;9.35;48.48;102187.91;146632;633;45016;-76
2023/02/12 08:30:04;;;;;;;;;46.75;37.75;;;;;9.35;48.46;102187.00;146634;573;45021;-74
2023/02/12 08:33:06;;;;;;;;;41.75;32.25;;;;;9.48;49.71;102185.50;146633;603;45016;-76
2023/02/12 08:36:27;;;;;;;;;44.75;36.75;;;;;8.41;51.84;101944.22;146635;625;45011;-75
2023/02/12 08:39:23;;;;;;;;;45.50;35.00;;;;;9.91;47.56;102177.59;146635;625;45016;-74
2023/02/12 08:42:26;;;;;;;;;47.50;35.50;;;;;10.02;49.50;102178.41;146635;569;45020;-74
2023/02/12 08:45:26;;;;;;;;;47.25;35.75;;;;;10.19;48.01;102175.41;146634;611;45017;-76
2023/02/12 08:48:23;;;;;;;;;39.00;33.50;;;;;10.32;47.92;102173.00;146635;628;46010;-73
2023/02/12 08:51:37;;;;;;;;;41.00;33.25;;;;;10.50;47.81;102170.88;146632;614;46012;-79
2023/02/12 08:54:43;;;;;;;;;38.75;32.00;;;;;10.74;48.02;102170.88;146637;572;45020;-79
2023/02/12 08:57:39;;;;;;;;;38.00;32.25;;;;;10.95;46.83;102164.66;146618;597;46014;-79
2023/02/12 09:00:46;;;;;;;;;47.50;37.25;;;;;11.05;46.48;102167.12;146614;589;46010;-76
2023/02/12 09:03:54;;;;;;;;;;;;;;;;;;;;;
2023/02/12 09:07:04;;;;;;;;;52.50;39.00;;;;;11.13;46.32;102159.00;146613;571;46010;-75
2023/02/12 09:10:14;;;;;;;;;50.25;41.50;;;;;11.23;46.68;102174.44;146611;596;46016;-76
2023/02/12 09:13:33;;;;;;;;;49.75;38.75;;;;;11.29;47.21;102177.47;146612;633;46020;-76
2023/02/12 09:16:31;;;;;;;;;43.00;34.50;;;;;11.37;45.17;102180.59;146610;582;46016;-77
2023/02/12 09:19:35;;;;;;;;;46.00;35.75;;;;;11.47;44.82;102165.81;146612;667;46012;-81
2023/02/12 09:22:37;;;;;;;;;42.00;33.50;;;;;11.61;44.57;102165.84;146612;587;46014;-80
2023/02/12 09:25:54;;;;;;;;;44.50;36.00;;;;;11.76;46.34;102167.81;146614;565;46012;-75
2023/02/12 09:29:14;;;;;;;;;;;;;;;;;;;;;
2023/02/12 09:32:15;;;;;;;;;37.75;31.75;;;;;11.82;45.18;102162.16;146613;608;46020;-75
2023/02/12 09:35:26;;;;;;;;;35.75;31.50;;;;;11.88;43.82;102165.22;146610;638;46012;-80
2023/02/12 09:38:26;;;;;;;;;38.00;32.50;;;;;11.96;45.66;102166.66;146612;721;46010;-80
2023/02/12 09:42:21;;;;;;;;;29.50;26.50;;;;;11.75;48.66;102088.06;146609;576;47012;-80
2023/02/12 09:45:37;;;;;;;;;44.00;34.00;;;;;12.43;45.82;102160.25;146613;601;46021;-76
2023/02/12 09:49:10;;;;;;;;;41.00;34.50;;;;;11.84;46.92;102033.22;146611;592;46016;-81
2023/02/12 09:52:27;;;;;;;;;40.50;32.00;;;;;12.71;46.31;102152.56;146612;629;46012;-81
2023/02/12 09:55:53;;;;;;;;;42.25;33.50;;;;;11.50;48.42;101907.97;146611;656;46016;-79
2023/02/12 09:59:03;;;;;;;;;44.25;34.50;;;;;13.11;46.62;102153.41;146621;596;46010;-80
2023/02/12 10:02:28;;;;;;;;;36.00;31.50;;;;;13.17;45.08;102147.69;146616;679;46016;-78
2023/02/12 10:05:38;;;;;;;;;32.50;31.00;;;;;13.23;46.18;102134.16;146620;566;47020;-77
2023/02/12 10:09:02;;;;;;;;;29.25;29.25;;;;;11.95;45.23;101889.28;146619;569;46012;-74
2023/02/12 10:12:40;;;;;;;;;19.75;19.50;;;;;12.26;44.06;101951.06;146619;585;46022;-74
2023/02/12 10:16:15;;;;;;;;;26.50;25.75;;;;;11.73;43.95;101893.88;146619;569;46017;-74
2023/02/12 10:20:00;;;;;;;;;28.00;26.25;;;;;11.99;42.10;101978.75;146620;667;46012;-74
2023/02/12 10:23:29;;;;;;;;;27.75;22.00;;;;;11.91;45.14;101991.28;146617;588;46012;-74
2023/02/12 10:26:54;;;;;;;;;34.75;29.75;;;;;12.82;43.12;102109.91;146620;582;46010;-75
2023/02/12 10:30:12;;;;;;;;;33.75;31.25;;;;;12.88;43.66;102110.28;146620;600;46012;-74
2023/02/12 10:33:21;;;;;;;;;26.50;24.50;;;;;13.06;42.99;102101.84;146622;563;46010;-75
2023/02/12 10:36:54;;;;;;;;;32.75;26.25;;;;;13.18;46.80;102107.84;146617;579;46014;-74
2023/02/12 10:40:37;;;;;;;;;25.75;24.25;;;;;13.05;45.69;102042.75;146622;569;45022;-75
2023/02/12 10:43:55;;;;;;;;;29.25;25.50;;;;;13.45;44.97;102092.13;146616;571;46916;-75
2023/02/12 10:47:08;;;;;;;;;25.00;21.00;;;;;13.79;42.91;102105.50;146620;630;46022;-74
2023/02/12 10:50:40;;;;;;;;;31.25;28.25;;;;;13.09;46.01;101959.72;146616;571;47033;-74
2023/02/12 10:53:45;;;;;;;;;20.25;19.50;;;;;14.08;41.85;102104.63;146619;606;46020;-73
2023/02/12 10:56:45;;;;;;;;;25.50;21.75;;;;;14.08;39.90;102096.81;146616;635;46016;-74
2023/02/12 10:59:38;;;;;;;;;28.50;24.00;;;;;14.06;40.18;102090.63;146636;597;46010;-76
2023/02/12 11:02:36;;;;;;;;;23.50;22.00;;;;;14.16;41.69;102085.13;146634;637;45016;-75
2023/02/12 11:05:39;;;;;;;;;24.50;20.75;;;;;14.29;43.12;102087.63;146636;569;45010;-74
2023/02/12 11:08:43;;;;;;;;;15.25;13.50;;;;;14.33;39.55;102075.69;146633;586;45016;-74
2023/02/12 11:11:48;;;;;;;;;23.25;19.50;;;;;14.32;39.85;102068.63;146636;564;45010;-74
2023/02/12 11:14:51;;;;;;;;;28.00;25.25;;;;;14.22;39.34;102062.00;146634;588;45017;-76
2023/02/12 11:18:18;;;;;;;;;28.75;25.00;;;;;14.19;42.16;102058.31;146638;569;45010;-76
2023/02/12 11:21:35;;;;;;;;;30.25;28.25;;;;;14.30;40.74;102068.56;146635;607;45028;-74
2023/02/12 11:24:51;;;;;;;;;21.50;21.00;;;;;14.46;42.25;102065.13;146638;589;45020;-73
2023/02/12 11:28:10;;;;;;;;;20.00;19.25;;;;;14.69;39.61;102066.44;146634;593;46012;-75
2023/02/12 11:31:30;;;;;;;;;25.25;22.25;;;;;14.99;35.55;102051.56;146633;615;46010;-73
2023/02/12 11:34:25;;;;;;;;;22.75;20.75;;;;;15.07;36.43;102053.69;146635;612;45917;-75
2023/02/12 11:37:34;;;;;;;;;15.75;15.25;;;;;15.07;36.08;102051.06;146638;610;45010;-75
2023/02/12 11:40:45;;;;;;;;;14.50;13.75;;;;;15.03;36.63;102042.19;146636;594;45016;-74
2023/02/12 11:43:43;;;;;;;;;18.00;16.50;;;;;14.97;36.08;102042.75;146636;602;45021;-75
2023/02/12 11:46:55;;;;;;;;;19.25;17.25;;;;;14.15;39.20;101892.03;146632;649;46014;-75
2023/02/12 11:50:26;;;;;;;;;19.75;18.50;;;;;14.28;38.39;101933.62;146636;579;45010;-74
2023/02/12 11:54:07;;;;;;;;;23.25;22.75;;;;;13.85;38.38;101873.84;146635;566;45016;-73
2023/02/12 11:58:03;;;;;;;;;16.00;15.00;;;;;13.77;37.76;101859.47;146633;595;45020;-75
2023/02/12 12:01:57;;;;;;;;;;;;;;;;;;;;;
2023/02/12 12:05:14;;;;;;;;;18.00;17.00;;;;;13.37;35.83;101897.19;146615;578;46021;-78
2023/02/12 12:08:38;;;;;;;;;28.75;26.75;;;;;13.73;38.95;102034.75;146610;593;46915;-73
2023/02/12 12:12:01;;;;;;;;;31.25;25.50;;;;;13.21;38.18;102042.91;146612;647;46021;-73
2023/02/12 12:22:51;;;;;;;;;20.50;18.25;;;;;13.02;41.54;102043.50;146612;631;46014;-74
2023/02/12 12:25:55;;;;;;;;;30.75;27.00;;;;;12.75;42.35;102040.03;146613;597;46010;-73
2023/02/12 12:29:27;;;;;;;;;15.00;10.50;;;;;12.42;41.23;102054.38;146612;594;46017;-74
2023/02/12 12:32:22;;;;;;;;;13.25;11.00;;;;;12.30;39.32;102053.56;146619;569;46010;-74
2023/02/12 12:35:19;;;;;;;;;17.25;16.25;;;;;12.31;39.55;102045.91;146612;579;46016;-75
2023/02/12 12:39:22;;;;;;;;;;;;;;;;;;;;;
2023/02/12 12:42:54;;;;;;;;;23.00;21.50;;;;;12.70;40.42;102051.84;146610;581;46013;-75
2023/02/12 12:46:38;;;;;;;;;34.00;30.50;;;;;12.78;45.97;102061.06;146614;696;46010;-75
2023/02/12 12:50:18;;;;;;;;;23.75;22.50;;;;;11.95;42.73;101898.78;146610;603;46917;-72
2023/02/12 12:53:53;;;;;;;;;23.50;22.25;;;;;12.69;46.33;102061.38;146615;596;46020;-74
2023/02/12 12:57:09;;;;;;;;;32.50;29.00;;;;;12.56;45.06;102060.50;146610;631;46918;-74
2023/02/12 13:00:59;;;;;;;;;31.75;29.50;;;;;11.54;44.96;101900.47;146638;583;45010;-76
2023/02/12 13:04:36;;;;;;;;;23.00;20.75;;;;;11.92;45.13;102062.34;146633;564;45016;-76
2023/02/12 13:08:26;;;;;;;;;25.25;21.50;;;;;11.04;46.84;101969.75;146632;580;46012;-75
2023/02/12 13:11:54;;;;;;;;;36.50;30.50;;;;;11.35;47.97;102074.03;146634;590;45017;-74
2023/02/12 13:15:25;;;;;;;;;37.50;32.50;;;;;11.25;44.87;102056.91;146637;593;45010;-73
2023/02/12 13:18:59;;;;;;;;;22.75;22.75;;;;;11.05;45.69;102046.81;146633;601;46012;-74
2023/02/12 13:22:34;;;;;;;;;27.00;25.50;;;;;11.10;45.83;102045.47;146633;585;45020;-74
2023/02/12 13:26:29;;;;;;;;;46.50;38.00;;;;;10.00;48.05;101875.13;146631;661;45013;-75
2023/02/12 13:30:08;;;;;;;;;46.00;37.50;;;;;11.05;48.95;102073.66;146635;577;45020;-74
2023/02/12 13:34:04;;;;;;;;;26.25;23.75;;;;;9.54;47.96;101796.69;146633;609;46012;-74
2023/02/12 13:37:09;;;;;;;;;30.00;25.25;;;;;11.02;47.40;102080.34;146636;623;45020;-73
2023/02/12 13:40:48;;;;;;;;;;;;;;;;;;;;;
2023/02/12 13:44:38;;;;;;;;;21.75;19.50;;;;;10.47;47.54;102007.28;146636;626;46010;-75
2023/02/12 13:48:14;;;;;;;;;37.25;31.00;;;;;10.87;48.69;102103.50;146635;575;45017;-74
2023/02/12 13:51:51;;;;;;;;;42.25;34.25;;;;;9.95;49.37;101949.91;146634;635;45020;-74
2023/02/12 13:55:33;;;;;;;;;27.25;23.75;;;;;10.91;49.52;102120.22;146636;629;45012;-74
2023/02/12 13:58:59;;;;;;;;;46.00;36.00;;;;;10.05;49.54;101963.53;146623;628;46010;-75
2023/02/12 14:01:55;;;;;;;;;19.75;18.00;;;;;10.90;46.92;102116.69;146611;566;46018;-74
2023/02/12 14:05:35;;;;;;;;;28.00;26.50;;;;;9.28;48.86;101845.62;146613;657;46020;-74
2023/02/12 14:08:44;;;;;;;;;19.50;18.00;;;;;10.79;47.82;102115.03;146612;565;46016;-76
2023/02/12 14:12:07;;;;;;;;;24.50;22.50;;;;;9.55;48.52;101909.81;146614;638;46010;-75
2023/02/12 14:15:55;;;;;;;;;;;;;;;;;;;;;
2023/02/12 14:19:35;;;;;;;;;18.25;18.00;;;;;9.37;48.54;101879.97;146613;577;46021;-76
2023/02/12 14:23:10;;;;;;;;;15.50;15.25;;;;;9.85;48.57;101975.94;146610;603;46016;-75
2023/02/12 14:26:23;;;;;;;;;27.25;26.00;;;;;10.98;47.86;102131.13;146619;624;46020;-75
2023/02/12 14:29:23;;;;;;;;;15.75;14.75;;;;;11.22;47.26;102133.69;146611;575;46016;-76
2023/02/12 14:33:25;;;;;;;;;20.50;18.50;;;;;11.43;48.23;102127.44;146614;596;46010;-76
2023/02/12 14:36:48;;;;;;;;;29.75;25.75;;;;;10.68;47.89;101953.41;146613;588;46012;-74
2023/02/12 14:39:40;;;;;;;;;32.25;27.75;;;;;11.73;46.34;102136.44;146612;600;46021;-74
2023/02/12 14:43:19;;;;;;;;;24.75;20.75;;;;;10.98;46.87;101978.00;146610;593;46016;-74
2023/02/12 14:47:13;;;;;;;;;17.25;17.25;;;;;11.67;47.50;102109.13;146614;629;46010;-72
2023/02/12 14:50:20;;;;;;;;;18.75;17.50;;;;;11.80;45.69;102133.44;146615;590;46016;-72
2023/02/12 14:53:38;;;;;;;;;19.50;17.75;;;;;10.50;46.29;101908.94;146616;567;46010;-71
2023/02/12 14:56:55;;;;;;;;;33.25;27.00;;;;;11.67;43.94;102130.81;146611;645;46016;-71
2023/02/12 14:59:52;;;;;;;;;20.25;18.25;;;;;11.53;43.81;102127.25;146634;583;45020;-71
2023/02/12 15:03:03;;;;;;;;;12.75;7.50;;;;;11.39;42.78;102133.19;146632;637;45017;-71
2023/02/12 15:06:32;;;;;;;;;;;;;;;;;;;;;
2023/02/12 15:09:48;;;;;;;;;15.75;14.50;;;;;10.95;43.99;102133.50;146633;579;45017;-71
2023/02/12 15:13:07;;;;;;;;;21.25;18.75;;;;;10.77;44.39;102133.06;146634;598;46012;-72
2023/02/12 15:16:45;;;;;;;;;;;;;;;;;;;;;
2023/02/12 15:20:40;;;;;;;;;;;;;;;;;;;;;
2023/02/12 15:23:51;;;;;;;;;15.00;12.00;;;;;10.38;47.48;102165.66;146633;686;45015;-72
2023/02/12 15:26:59;;;;;;;;;15.50;14.75;;;;;10.27;47.17;102176.91;146633;602;45012;-72
2023/02/12 15:30:06;;;;;;;;;23.50;18.25;;;;;10.18;48.48;102187.44;146634;595;45016;-71
2023/02/12 15:33:50;;;;;;;;;14.25;12.50;;;;;9.10;47.52;102014.28;146635;565;45011;-71
2023/02/12 15:36:51;;;;;;;;;12.75;10.00;;;;;10.06;47.64;102193.38;146634;620;45016;-70
2023/02/12 15:39:58;;;;;;;;;12.50;11.50;;;;;10.04;48.67;102202.75;146636;611;45021;-72
2023/02/12 15:43:33;;;;;;;;;;;;;;;;;;;;;